Flight Track Log - Related Links

Times and Time Zones

All times are in EDT time to prevent confusion due to time zone crossing. See the FFT532 flight status page for this flight to view local times or setup timezone preferences in your user account.

Time Position Orientation Groundspeed Altitude Reporting Facility
EDT Latitude Longitude Course Direction KTS MPH feet Rate Location/Type
Sun 09:28:15 AM 39.8167 -104.6333 90° East 198 228 7,100  Level Denver TRACON
Sun 09:29:16 AM 39.8167 -104.5333 90° East 259 298 8,200 1,881 Climbing Denver TRACON
Sun 09:30:13 AM 39.8103 -104.4328 95° East 296 341 10,800 2,390 Climbing Denver Center
Sun 09:31:14 AM 39.8208 -104.3122 83° East 333 383 12,900 2,311 Climbing Denver Center
Sun 09:32:15 AM 39.8358 -104.1858 81° East 356 410 15,500 2,281 Climbing Denver Center
Sun 09:33:15 AM 39.8561 -104.0544 79° East 371 427 17,500 2,050 Climbing Denver Center
Sun 09:34:15 AM 39.8767 -103.9169 79° East 390 449 19,600 2,033 Climbing Denver Center
Sun 09:35:16 AM 39.8992 -103.7744 78° East 402 463 21,600 2,016 Climbing Denver Center
Sun 09:36:17 AM 39.9225 -103.6236 79° East 403 464 23,700 1,934 Climbing Denver Center
Sun 09:37:17 AM 39.9447 -103.4733 79° East 418 481 25,500 1,736 Climbing Denver Center
Sun 09:38:18 AM 39.9669 -103.3181 79° East 431 496 27,200 1,525 Climbing Denver Center
Sun 09:39:19 AM 39.9908 -103.1617 79° East 436 502 28,600 1,339 Climbing Denver Center
Sun 09:40:19 AM 40.0153 -103.0008 79° East 448 516 29,900 1,240 Climbing Denver Center
Sun 09:41:20 AM 40.0369 -102.8375 80° East 452 520 31,100 1,279 Climbing Denver Center
Sun 09:42:21 AM 40.0608 -102.6761 79° East 453 521 32,500 1,438 Climbing Denver Center
Sun 09:43:21 AM 40.0836 -102.5208 79° East 455 524 34,000 1,388 Climbing Denver Center
Sun 09:44:22 AM 40.1042 -102.3703 80° East 441 507 35,300 1,230 Climbing Denver Center
Sun 09:45:23 AM 40.1283 -102.1936 80° East 442 509 36,500 984 Climbing Denver Center
Sun 09:46:24 AM 40.1494 -102.0469 79° East 434 499 37,300 689 Climbing Denver Center
Sun 09:47:25 AM 40.1694 -101.8975 80° East 436 502 37,900 545 Climbing Denver Center
Sun 09:48:25 AM 40.1928 -101.7219 80° East 441 507 38,400 397 Climbing Denver Center
Sun 09:49:26 AM 40.2128 -101.5708 80° East 444 511 38,700 295 Climbing Denver Center
Sun 09:50:27 AM 40.2367 -101.3928 80° East 447 514 39,000 148 Climbing Denver Center
Sun 09:51:28 AM 40.2564 -101.2406 80° East 444 511 39,000  Level Denver Center
Sun 09:52:29 AM 40.2761 -101.0869 80° East 448 516 39,000  Level Denver Center
Sun 09:53:30 AM 40.2994 -100.9078 80° East 449 517 39,000  Level Denver Center
Sun 09:55:05 AM 40.3314 -100.6600 80° East 450 518 39,000  Level Minneapolis Center
Sun 09:55:32 AM 40.3372 -100.6006 83° East 448 516 39,000 -69 Level Denver Center
Sun 09:56:32 AM 40.3594 -100.4219 81° East 447 514 38,900 -49 Descending Denver Center
Sun 09:57:34 AM 40.3778 -100.2700 81° East 445 512 38,900  Level Denver Center
Sun 09:58:35 AM 40.3997 -100.0914 81° East 448 516 38,900 49 Level Denver Center
Sun 09:59:36 AM 40.4172 -99.9378 81° East 447 514 39,000 49 Climbing Denver Center
Sun 10:00:37 AM 40.4356 -99.7908 81° East 450 518 39,000  Level Denver Center
Sun 10:01:38 AM 40.4567 -99.5964 82° East 450 518 39,000  Level Denver Center
Sun 10:02:39 AM 40.4758 -99.4350 81° East 449 517 39,000  Level Denver Center
Sun 10:03:40 AM 40.4942 -99.2756 81° East 444 511 39,000  Level Denver Center
Sun 10:04:53 AM 40.5117 -99.1150 82° East 445 512 39,000  Level Denver Center
Sun 10:05:16 AM 40.5217 -99.0192 82° East 446 513 39,000  Level Minneapolis Center
Sun 10:06:17 AM 40.5403 -98.8589 81° East 446 513 39,000  Level Minneapolis Center
Sun 10:07:19 AM 40.5567 -98.6994 82° East 445 512 39,000  Level Minneapolis Center
Sun 10:08:20 AM 40.5736 -98.5406 82° East 443 510 39,000  Level Minneapolis Center
Sun 10:09:21 AM 40.5897 -98.3814 82° East 442 509 39,000 -49 Level Minneapolis Center
Sun 10:10:22 AM 40.6058 -98.2217 82° East 442 509 38,900  Descending Minneapolis Center
Sun 10:11:23 AM 40.6225 -98.0633 82° East 441 507 39,000 49 Climbing Minneapolis Center
Sun 10:12:24 AM 40.6411 -97.8725 83° East 441 507 39,000  Level Minneapolis Center
Sun 10:13:25 AM 40.6564 -97.7139 83° East 439 505 39,000  Level Minneapolis Center
Sun 10:14:27 AM 40.6719 -97.5547 83° East 439 505 39,000  Level Minneapolis Center
Sun 10:15:28 AM 40.6872 -97.3947 83° East 440 506 39,000 -49 Level Minneapolis Center
Sun 10:16:29 AM 40.7017 -97.2358 83° East 438 504 38,900 -49 Descending Minneapolis Center
Sun 10:17:30 AM 40.7175 -97.0772 82° East 437 503 38,900 44 Level Minneapolis Center
Sun 10:18:44 AM 40.7353 -96.8878 83° East 436 502 39,000 44 Climbing Minneapolis Center
Sun 10:19:45 AM 40.7492 -96.7283 83° East 437 503 39,000  Level Minneapolis Center
Sun 10:20:46 AM 40.7628 -96.5681 84° East 440 506 39,000  Level Minneapolis Center
Sun 10:22:00 AM 40.7794 -96.3781 83° East 439 505 39,000 -44 Level Minneapolis Center
Sun 10:23:01 AM 40.7953 -96.1867 84° East 440 506 38,900 -49 Descending Minneapolis Center
Sun 10:24:02 AM 40.8083 -96.0286 84° East 438 504 38,900  Level Minneapolis Center
Sun 10:25:04 AM 40.8225 -95.8692 83° East 439 505 38,900 49 Level Minneapolis Center
Sun 10:26:05 AM 40.8344 -95.7097 84° East 441 507 39,000 49 Climbing Minneapolis Center
Sun 10:27:07 AM 40.8472 -95.5494 84° East 441 507 39,000  Level Minneapolis Center
Sun 10:28:08 AM 40.8603 -95.3889 84° East 442 509 39,000 -49 Level Minneapolis Center
Sun 10:29:10 AM 40.8725 -95.2281 84° East 442 509 38,900  Descending Minneapolis Center
Sun 10:30:11 AM 40.8844 -95.0664 84° East 444 511 39,000 49 Climbing Minneapolis Center
Sun 10:31:13 AM 40.8992 -94.8711 84° East 446 513 39,000  Level Minneapolis Center
Sun 10:32:14 AM 40.9103 -94.7078 85° East 447 514 39,000  Level Minneapolis Center
Sun 10:33:16 AM 40.9217 -94.5497 85° East 447 514 39,000  Level Minneapolis Center
Sun 10:34:17 AM 40.9333 -94.3875 85° East 446 513 39,000 -49 Level Minneapolis Center
Sun 10:35:19 AM 40.9442 -94.2261 85° East 446 513 38,900 -49 Descending Minneapolis Center
Sun 10:36:20 AM 40.9525 -94.0664 86° East 441 507 38,900 49 Level Minneapolis Center
Sun 10:37:22 AM 40.9647 -93.8719 85° East 444 511 39,000 48 Climbing Minneapolis Center
Sun 10:38:24 AM 40.9767 -93.7094 84° East 445 512 39,000  Level Minneapolis Center
Sun 10:39:25 AM 40.9856 -93.5469 86° East 446 513 39,000 -341 Level Minneapolis Center
Sun 10:40:27 AM 40.9958 -93.3856 85° East 444 511 38,300 -823 Descending Minneapolis Center
Sun 10:41:29 AM 41.0056 -93.2217 85° East 447 514 37,300 -634 Descending Minneapolis Center
Sun 10:42:30 AM 41.0153 -93.0581 85° East 448 516 37,000 -146 Descending Minneapolis Center
Sun 10:43:32 AM 41.0239 -92.9011 86° East 436 502 37,000  Level Minneapolis Center
Sun 10:43:52 AM 41.0278 -92.8381 85° East 429 494 37,000 -74 Level Chicago Center
Sun 10:44:53 AM 41.0369 -92.6808 86° East 430 495 36,900 -49 Descending Chicago Center
Sun 10:45:55 AM 41.0444 -92.5247 86° East 427 491 36,900 -145 Level Chicago Center
Sun 10:46:57 AM 41.0522 -92.3667 86° East 430 495 36,600 -683 Descending Chicago Center
Sun 10:47:58 AM 41.0622 -92.1778 86° East 428 493 35,500 -1,024 Descending Chicago Center
Sun 10:49:00 AM 41.0700 -92.0208 86° East 427 491 34,500 -878 Descending Chicago Center
Sun 10:50:01 AM 41.0769 -91.8672 87° East 422 486 33,700 -683 Descending Chicago Center
Sun 10:51:03 AM 41.0831 -91.7156 87° East 417 480 33,100 -629 Descending Chicago Center
Sun 10:52:05 AM 41.0919 -91.5503 86° East 420 483 32,400 -780 Descending Chicago Center
Sun 10:53:06 AM 41.0978 -91.3944 87° East 423 487 31,500 -927 Descending Chicago Center
Sun 10:54:08 AM 41.1042 -91.2417 87° East 418 481 30,500 -976 Descending Chicago Center
Sun 10:55:09 AM 41.1108 -91.0858 87° East 422 486 29,500 -1,220 Descending Chicago Center
Sun 10:56:11 AM 41.1169 -90.9306 87° East 422 486 28,000 -2,000 Descending Chicago Center
Sun 10:57:12 AM 41.1225 -90.7717 87° East 430 495 25,400 -2,244 Descending Chicago Center
Sun 10:58:14 AM 41.1286 -90.6053 87° East 446 513 23,400 -1,805 Descending Chicago Center
Sun 10:59:15 AM 41.1353 -90.4119 87° East 438 504 21,700 -1,512 Descending Chicago Center
Sun 11:00:17 AM 41.1411 -90.2550 87° East 427 491 20,300 -1,403 Descending Chicago Center
Sun 11:01:19 AM 41.1461 -90.1003 87° East 420 483 18,800 -1,463 Descending Chicago Center
Sun 11:02:20 AM 41.1497 -89.9511 88° East 408 470 17,300 -1,463 Descending Chicago Center
Sun 11:03:22 AM 41.1542 -89.8069 88° East 395 455 15,800 -1,171 Descending Chicago Center
Sun 11:04:23 AM 41.1589 -89.6625 87° East 391 450 14,900 -390 Descending Chicago Center
Sun 11:05:25 AM 41.1975 -89.5431 67° East 366 421 15,000 48 Climbing Chicago Center
Sun 11:06:27 AM 41.2325 -89.4292 68° East 346 398 15,000  Level Chicago Center
Sun 11:07:28 AM 41.2656 -89.3161 69° East 331 381 15,000 -244 Level Chicago Center
Sun 11:08:30 AM 41.3042 -89.1789 69° East 332 382 14,500 -1,268 Descending Chicago Center
Sun 11:09:31 AM 41.3353 -89.0661 70° East 327 376 12,400 -1,805 Descending Chicago Center
Sun 11:10:33 AM 41.3686 -88.9531 69° East 330 380 10,800 -1,317 Descending Chicago Center
Sun 11:11:34 AM 41.3978 -88.8497 69° East 304 350 9,700 -1,220 Descending Chicago Center
Sun 11:12:36 AM 41.4253 -88.7514 70° East 286 329 8,300 -1,355 Descending Chicago Center
Sun 11:13:38 AM 41.4503 -88.6558 71° East 276 318 6,900 -1,122 Descending Chicago Center
Sun 11:14:39 AM 41.4722 -88.5611 73° East 270 311 6,000 -439 Descending Chicago Center
Sun 11:15:41 AM 41.4989 -88.4461 73° East 270 311 6,000 -341 Level Chicago Center
Sun 11:16:42 AM 41.5208 -88.3536 72° East 266 306 5,300 -488 Descending Chicago Center
Sun 11:17:44 AM 41.5406 -88.2728 72° East 237 273 5,000 -290 Descending Chicago Center
Sun 11:18:46 AM 41.5594 -88.1886 73° East 234 269 4,700 -387 Descending Chicago Center
Sun 11:19:48 AM 41.5786 -88.1069 73° East 231 266 4,200 -341 Descending Chicago Center
Sun 11:20:49 AM 41.5983 -88.0256 72° East 230 265 4,000 -98 Descending Chicago Center
Sun 11:21:51 AM 41.6267 -87.9531 62° Northeast 227 261 4,000 -97 Level Chicago Center
Sun 11:22:53 AM 41.6667 -87.9017 44° Northeast 209 241 3,800 -689 Descending Chicago Center
Sun 11:23:53 AM 41.7167 -87.8500 38° Northeast 179 206 2,600 -1,053 Descending Chicago TRACON
Sun 11:24:47 AM 41.7333 -87.8167 56° Northeast 152 175 1,800 -789 Descending Chicago TRACON
Sun 11:25:47 AM 41.7667 -87.7833 37° Northeast 126 145 1,100 -700 Descending Chicago TRACON

Login

Don't have an account? Register now (free) for customized features, flight alerts, and more!